createdAt,value
2023-03-31T00:02:23.378Z,99378.88
2023-03-31T00:05:12.279Z,99382.38
2023-03-31T00:08:01.281Z,99369.13
2023-03-31T00:10:49.507Z,99369.34
2023-03-31T00:13:36.972Z,99363.19
2023-03-31T00:16:27.219Z,99356.31
2023-03-31T00:19:07.793Z,99363.75
2023-03-31T00:21:54.095Z,99359.00
2023-03-31T00:24:37.976Z,99361.31
2023-03-31T00:27:27.710Z,99349.50
2023-03-31T00:30:11.374Z,99348.50
2023-03-31T00:33:00.731Z,99342.09
2023-03-31T00:35:41.114Z,99333.63
2023-03-31T00:38:24.699Z,99333.22
2023-03-31T00:41:15.389Z,99335.47
2023-03-31T00:44:30.326Z,99335.47
2023-03-31T00:47:12.668Z,99330.34
2023-03-31T00:49:57.227Z,99339.88
2023-03-31T00:52:58.320Z,99326.22
2023-03-31T00:55:56.076Z,99333.22
2023-03-31T00:58:43.992Z,99328.84
2023-03-31T01:01:32.501Z,99328.66
2023-03-31T01:04:29.968Z,99318.72
2023-03-31T01:07:52.647Z,99318.78
2023-03-31T01:10:39.392Z,99316.47
2023-03-31T01:13:26.686Z,99325.97
2023-03-31T01:16:07.647Z,99314.03
2023-03-31T01:18:49.897Z,99316.72
2023-03-31T01:21:59.899Z,99324.59
2023-03-31T01:25:07.536Z,99319.66
2023-03-31T01:28:16.396Z,99314.97
2023-03-31T01:31:15.795Z,99310.81
2023-03-31T01:34:29.740Z,99307.78
2023-03-31T01:37:42.796Z,99316.69
2023-03-31T01:40:38.894Z,99312.59
2023-03-31T01:43:57.458Z,99321.66
2023-03-31T01:47:01.678Z,99310.31
2023-03-31T01:50:01.505Z,99307.03
2023-03-31T01:53:08.958Z,99297.34
2023-03-31T01:56:05.815Z,99297.16
2023-03-31T01:58:48.182Z,99305.44
2023-03-31T02:01:41.160Z,99306.69
2023-03-31T02:04:33.712Z,99302.97
2023-03-31T02:07:40.385Z,99298.00
2023-03-31T02:10:20.609Z,99298.63
2023-03-31T02:13:04.426Z,99305.44
2023-03-31T02:15:53.522Z,99302.34
2023-03-31T02:18:39.171Z,99309.38
2023-03-31T02:21:18.020Z,99298.00
2023-03-31T02:24:10.435Z,99312.44
2023-03-31T02:26:58.957Z,99304.97
2023-03-31T02:29:48.916Z,99295.47
2023-03-31T02:32:42.720Z,99296.13
2023-03-31T02:35:31.402Z,99296.28
2023-03-31T02:38:11.874Z,99284.69
2023-03-31T02:41:01.360Z,99278.09
2023-03-31T02:43:39.253Z,99277.69
2023-03-31T02:46:23.946Z,99274.78
2023-03-31T02:49:05.265Z,99280.91
2023-03-31T02:52:06.707Z,99271.00
2023-03-31T02:55:01.121Z,99263.19
2023-03-31T02:57:56.138Z,99274.28
2023-03-31T03:01:03.427Z,99276.75
2023-03-31T03:04:12.464Z,99283.75
2023-03-31T03:07:15.522Z,99284.16
2023-03-31T03:10:29.489Z,99279.00
2023-03-31T03:13:26.750Z,99295.09
2023-03-31T03:16:14.120Z,99291.81
2023-03-31T03:19:08.870Z,99283.09
2023-03-31T03:21:47.688Z,99290.91
2023-03-31T03:24:34.330Z,99288.00
2023-03-31T03:27:16.887Z,99285.50
2023-03-31T03:30:00.008Z,99295.63
2023-03-31T03:32:44.407Z,99292.72
2023-03-31T03:35:34.369Z,99297.28
2023-03-31T03:38:23.870Z,99295.81
2023-03-31T03:41:13.750Z,99290.81
2023-03-31T03:44:00.029Z,99291.00
2023-03-31T03:46:43.203Z,99297.63
2023-03-31T03:49:29.747Z,99285.81
2023-03-31T03:52:21.133Z,99288.72
2023-03-31T03:55:01.967Z,99298.22
2023-03-31T03:57:50.404Z,99302.34
2023-03-31T04:00:37.196Z,99297.56
2023-03-31T04:03:20.708Z,99295.69
2023-03-31T04:06:10.841Z,99294.25
2023-03-31T04:08:54.358Z,99292.22
2023-03-31T04:11:41.615Z,99294.31
2023-03-31T04:14:32.140Z,99292.63
2023-03-31T04:17:18.879Z,99287.44
2023-03-31T04:20:02.478Z,99282.22
2023-03-31T04:22:47.386Z,99286.50
2023-03-31T04:25:30.879Z,99282.00
2023-03-31T04:28:20.646Z,99277.47
2023-03-31T04:31:01.403Z,99273.72
2023-03-31T04:33:48.236Z,99272.09
2023-03-31T04:36:38.363Z,99276.06
2023-03-31T04:39:41.287Z,99271.78
2023-03-31T04:42:25.005Z,99285.16
2023-03-31T04:45:08.698Z,99280.22
2023-03-31T04:47:55.184Z,99274.25
2023-03-31T04:50:38.684Z,99278.81
2023-03-31T04:53:16.558Z,99276.13
2023-03-31T04:55:54.788Z,99273.28
2023-03-31T04:58:38.084Z,99278.22
2023-03-31T05:01:24.459Z,99282.13
2023-03-31T05:04:10.314Z,99279.91
2023-03-31T05:06:53.722Z,99278.22
2023-03-31T05:09:44.038Z,99276.84
2023-03-31T05:12:30.125Z,99272.50
2023-03-31T05:15:09.780Z,99274.59
2023-03-31T05:17:53.414Z,99274.06
2023-03-31T05:20:44.294Z,99267.69
2023-03-31T05:23:33.612Z,99264.84
2023-03-31T05:26:25.384Z,99270.88
2023-03-31T05:29:10.314Z,99262.44
2023-03-31T05:31:53.783Z,99265.56
2023-03-31T05:34:43.235Z,99253.81
2023-03-31T05:37:31.830Z,99256.69
2023-03-31T05:40:29.416Z,99266.19
2023-03-31T05:43:13.165Z,99260.34
2023-03-31T05:46:02.223Z,99261.06
2023-03-31T05:48:48.144Z,99268.72
2023-03-31T05:51:32.979Z,99263.25
2023-03-31T05:54:15.624Z,99269.75
2023-03-31T05:57:10.856Z,99270.53
2023-03-31T06:00:02.566Z,99268.94
2023-03-31T06:02:46.273Z,99262.88
2023-03-31T06:05:35.366Z,99257.72
2023-03-31T06:08:28.161Z,99251.41
2023-03-31T06:11:15.181Z,99241.53
2023-03-31T06:14:13.330Z,99248.78
2023-03-31T06:17:01.865Z,99248.63
2023-03-31T06:19:46.350Z,99252.44
2023-03-31T06:22:29.460Z,99252.72
2023-03-31T06:25:21.881Z,99253.84
2023-03-31T06:28:01.446Z,99253.34
2023-03-31T06:30:47.653Z,99265.31
2023-03-31T06:33:40.083Z,99255.91
2023-03-31T06:36:31.985Z,99255.84
2023-03-31T06:39:12.408Z,99258.13
2023-03-31T06:42:02.910Z,99262.34
2023-03-31T06:44:59.367Z,99263.88
2023-03-31T06:47:46.190Z,99258.44
2023-03-31T06:50:30.448Z,99259.97
2023-03-31T06:53:17.322Z,99247.94
2023-03-31T06:56:09.677Z,99245.50
2023-03-31T06:58:53.571Z,99244.44
2023-03-31T07:01:48.827Z,99248.53
2023-03-31T07:04:30.521Z,99242.22
2023-03-31T07:07:11.282Z,99237.88
2023-03-31T07:09:51.401Z,99240.59
2023-03-31T07:12:44.767Z,99245.59
2023-03-31T07:15:28.760Z,99245.59
2023-03-31T07:18:15.994Z,99241.84
2023-03-31T07:21:09.953Z,99244.78
2023-03-31T07:23:51.046Z,99248.69
2023-03-31T07:26:38.376Z,99243.94
2023-03-31T07:29:23.689Z,99235.63
2023-03-31T07:32:13.726Z,99241.63
2023-03-31T07:34:54.376Z,99232.47
2023-03-31T07:37:43.271Z,99224.00
2023-03-31T07:40:23.589Z,99221.84
2023-03-31T07:43:03.908Z,99226.69
2023-03-31T07:45:44.141Z,99230.19
2023-03-31T07:48:34.096Z,99229.09
2023-03-31T07:51:14.662Z,99221.53
2023-03-31T07:54:00.611Z,99222.56
2023-03-31T07:56:47.229Z,99209.75
2023-03-31T07:59:30.486Z,99216.38
2023-03-31T08:02:20.646Z,99225.03
2023-03-31T08:05:11.711Z,99206.84
2023-03-31T08:07:52.809Z,99202.75
2023-03-31T08:10:37.938Z,99197.28
2023-03-31T08:13:15.094Z,99194.47
2023-03-31T08:15:56.300Z,99188.84
2023-03-31T08:18:50.831Z,99192.66
2023-03-31T08:21:31.297Z,99187.75
2023-03-31T08:24:23.402Z,99177.13
2023-03-31T08:27:04.700Z,99173.16
2023-03-31T08:29:47.511Z,99172.25
2023-03-31T08:32:34.688Z,99167.56
2023-03-31T08:35:10.466Z,99161.84
2023-03-31T08:37:49.551Z,99157.31
2023-03-31T08:40:32.425Z,99158.13
2023-03-31T08:43:28.376Z,99147.41
2023-03-31T08:46:21.225Z,99152.56
2023-03-31T08:49:25.658Z,99142.31
2023-03-31T08:52:09.975Z,99135.00
2023-03-31T08:54:52.660Z,99130.81
2023-03-31T08:57:43.021Z,99126.19
2023-03-31T09:00:26.741Z,99112.47
2023-03-31T09:03:19.439Z,99119.66
2023-03-31T09:06:12.414Z,99111.19
2023-03-31T09:09:08.371Z,99100.41
2023-03-31T09:12:08.082Z,99094.78
2023-03-31T09:15:05.513Z,99092.59
2023-03-31T09:17:52.118Z,99076.03
2023-03-31T09:20:32.123Z,99078.88
2023-03-31T09:23:23.710Z,99067.50
2023-03-31T09:26:11.072Z,99077.56
2023-03-31T09:28:54.031Z,99074.81
2023-03-31T09:31:36.641Z,99064.31
2023-03-31T09:34:38.637Z,99067.41
2023-03-31T09:37:19.830Z,99057.19
2023-03-31T09:40:00.400Z,99048.16
2023-03-31T09:42:42.166Z,99043.63
2023-03-31T09:45:34.118Z,99045.22
2023-03-31T09:48:46.344Z,99049.19
2023-03-31T09:51:39.071Z,99047.47
2023-03-31T09:54:58.482Z,99037.78
2023-03-31T09:57:50.762Z,99029.41
2023-03-31T10:00:33.380Z,99037.69
2023-03-31T10:03:20.361Z,99026.63
2023-03-31T10:06:02.428Z,99019.06
2023-03-31T10:09:08.071Z,99025.34
2023-03-31T10:12:12.812Z,99017.53
2023-03-31T10:14:54.568Z,99005.63
2023-03-31T10:17:47.042Z,99006.25
2023-03-31T10:20:49.403Z,98991.59
2023-03-31T10:23:44.909Z,98985.06
2023-03-31T10:26:32.720Z,98980.78
2023-03-31T10:29:15.539Z,98975.22
2023-03-31T10:31:54.554Z,98982.53
2023-03-31T10:34:31.643Z,98976.47
2023-03-31T10:37:36.616Z,98969.31
2023-03-31T10:40:38.007Z,98966.88
2023-03-31T10:43:30.244Z,98956.97
2023-03-31T10:46:13.376Z,98968.19
2023-03-31T10:48:55.368Z,98964.22
2023-03-31T10:51:40.730Z,98960.38
2023-03-31T10:54:19.270Z,98956.41
2023-03-31T10:57:35.112Z,98951.03
2023-03-31T11:00:39.299Z,98955.16
2023-03-31T11:03:40.585Z,98949.13
2023-03-31T11:06:33.312Z,98941.22
2023-03-31T11:09:34.433Z,98934.72
2023-03-31T11:12:52.870Z,98927.09
2023-03-31T11:15:42.990Z,98929.88
2023-03-31T11:18:44.364Z,98930.50
2023-03-31T11:21:28.424Z,98930.16
2023-03-31T11:24:07.314Z,98920.63
2023-03-31T11:27:12.741Z,98921.75
2023-03-31T11:30:20.438Z,98904.56
2023-03-31T11:33:04.358Z,98896.44
2023-03-31T11:35:59.841Z,98902.22
2023-03-31T11:39:07.815Z,98882.72
2023-03-31T11:41:59.045Z,98873.50
2023-03-31T11:44:46.057Z,98874.19
2023-03-31T11:47:56.868Z,98862.88
2023-03-31T11:50:45.777Z,98863.31
2023-03-31T11:53:29.798Z,98852.09
2023-03-31T11:56:16.217Z,98843.78
2023-03-31T11:59:09.355Z,98839.16
2023-03-31T12:02:11.313Z,98828.88
2023-03-31T12:04:56.498Z,98834.47
2023-03-31T12:07:48.816Z,98837.44
2023-03-31T12:10:55.290Z,98830.72
2023-03-31T12:13:51.310Z,98818.22
2023-03-31T12:16:52.879Z,98816.69
2023-03-31T12:19:58.338Z,98809.66
2023-03-31T12:22:51.291Z,98808.28
2023-03-31T12:25:36.480Z,98803.13
2023-03-31T12:28:21.322Z,98802.81
2023-03-31T12:31:14.852Z,98799.69
2023-03-31T12:34:06.338Z,98789.00
2023-03-31T12:37:02.085Z,98799.13
2023-03-31T12:39:48.584Z,98788.13
2023-03-31T12:43:00.362Z,98780.13
2023-03-31T12:45:44.043Z,98769.38
2023-03-31T12:48:59.511Z,98754.69
2023-03-31T12:52:00.945Z,98759.31
2023-03-31T12:54:52.001Z,98747.91
2023-03-31T12:57:31.255Z,98754.91
2023-03-31T13:00:47.268Z,98744.28
2023-03-31T13:04:01.640Z,98718.66
2023-03-31T13:07:01.342Z,98730.03
2023-03-31T13:09:59.107Z,98724.66
2023-03-31T13:12:39.932Z,98709.16
2023-03-31T13:15:27.511Z,98717.25
2023-03-31T13:18:09.110Z,98708.50
2023-03-31T13:20:46.277Z,98700.84
2023-03-31T13:23:34.108Z,98678.97
2023-03-31T13:26:40.604Z,98667.31
2023-03-31T13:30:09.395Z,98676.75
2023-03-31T13:33:50.376Z,98677.56
2023-03-31T13:37:02.665Z,98663.34
2023-03-31T13:40:12.403Z,98656.75
2023-03-31T13:43:07.100Z,98646.75
2023-03-31T13:46:17.511Z,98640.00
2023-03-31T13:49:33.403Z,98627.84
2023-03-31T13:52:17.790Z,98637.19
2023-03-31T13:55:13.156Z,98630.50
2023-03-31T13:58:19.966Z,98620.44
2023-03-31T14:01:19.826Z,98619.66
2023-03-31T14:04:21.857Z,98616.09
2023-03-31T14:07:37.857Z,98608.16
2023-03-31T14:10:43.275Z,98600.06
2023-03-31T14:13:28.919Z,98601.88
2023-03-31T14:16:21.123Z,98587.69
2023-03-31T14:22:23.409Z,98591.97
2023-03-31T14:25:27.190Z,98589.72
2023-03-31T14:28:25.270Z,98594.34
2023-03-31T14:31:24.349Z,98587.50
2023-03-31T14:34:34.502Z,98576.81
2023-03-31T14:37:24.699Z,98557.38
2023-03-31T14:40:02.015Z,98555.69
2023-03-31T14:42:53.141Z,98541.88
2023-03-31T14:45:42.510Z,98540.41
2023-03-31T14:48:23.728Z,98530.91
2023-03-31T14:51:17.064Z,98529.09
2023-03-31T14:54:19.241Z,98525.66
2023-03-31T14:57:07.796Z,98528.03
2023-03-31T14:59:58.681Z,98523.06
2023-03-31T15:02:47.613Z,98513.91
2023-03-31T15:05:46.450Z,98514.88
2023-03-31T15:08:29.834Z,98512.63
2023-03-31T15:11:19.927Z,98508.38
2023-03-31T15:14:05.707Z,98502.97
2023-03-31T15:16:57.189Z,98502.44
2023-03-31T15:19:54.683Z,98502.28
2023-03-31T15:22:35.987Z,98502.94
2023-03-31T15:25:24.339Z,98497.41
2023-03-31T15:28:18.309Z,98484.56
2023-03-31T15:31:09.652Z,98485.34
2023-03-31T15:33:55.168Z,98485.81
2023-03-31T15:36:40.453Z,98474.47
2023-03-31T15:39:22.681Z,98480.84
2023-03-31T15:42:05.627Z,98482.47
2023-03-31T15:45:11.377Z,98472.78
2023-03-31T15:47:59.392Z,98460.63
2023-03-31T15:50:45.439Z,98465.25
2023-03-31T15:53:54.075Z,98449.22
2023-03-31T15:56:48.405Z,98443.69
2023-03-31T15:59:51.232Z,98437.63
2023-03-31T16:02:56.558Z,98443.75
2023-03-31T16:06:09.021Z,98426.50
2023-03-31T16:09:08.468Z,98433.06
2023-03-31T16:12:30.856Z,98437.31
2023-03-31T16:15:15.435Z,98427.78
2023-03-31T16:18:12.206Z,98421.97
2023-03-31T16:21:15.673Z,98434.72
2023-03-31T16:23:58.475Z,98441.34
2023-03-31T16:26:49.692Z,98441.66
2023-03-31T16:29:34.393Z,98443.19
2023-03-31T16:32:25.392Z,98450.03
2023-03-31T16:34:59.251Z,98444.66
2023-03-31T16:37:42.232Z,98438.94
2023-03-31T16:40:46.710Z,98442.28
2023-03-31T16:43:36.786Z,98453.84
2023-03-31T16:46:18.364Z,98454.47
2023-03-31T16:49:12.940Z,98470.25
2023-03-31T16:52:05.231Z,98473.66
2023-03-31T16:54:52.551Z,98482.84
2023-03-31T16:57:37.359Z,98488.03
2023-03-31T17:00:45.449Z,98481.78
2023-03-31T17:03:29.737Z,98479.66
2023-03-31T17:06:21.563Z,98476.97
2023-03-31T17:09:05.769Z,98476.97
2023-03-31T17:11:48.857Z,98474.88
2023-03-31T17:14:49.226Z,98480.91
2023-03-31T17:17:37.478Z,98477.69
2023-03-31T17:20:28.759Z,98456.50
2023-03-31T17:23:17.380Z,98464.44
2023-03-31T17:25:54.102Z,98462.53
2023-03-31T17:28:41.157Z,98462.59
2023-03-31T17:31:44.286Z,98459.88
2023-03-31T17:34:43.426Z,98469.09
2023-03-31T17:37:21.812Z,98463.16
2023-03-31T17:40:02.464Z,98463.41
2023-03-31T17:43:05.830Z,98469.16
2023-03-31T17:46:19.391Z,98468.66
2023-03-31T17:49:19.464Z,98468.09
2023-03-31T17:52:10.070Z,98460.22
2023-03-31T17:54:50.726Z,98463.50
2023-03-31T17:57:37.428Z,98461.09
2023-03-31T18:00:16.671Z,98464.88
2023-03-31T18:03:08.587Z,98461.59
2023-03-31T18:05:55.528Z,98451.28
2023-03-31T18:08:58.544Z,98461.34
2023-03-31T18:11:45.850Z,98463.53
2023-03-31T18:14:35.285Z,98469.53
2023-03-31T18:17:21.418Z,98480.66
2023-03-31T18:20:05.745Z,98489.06
2023-03-31T18:22:55.472Z,98488.44
2023-03-31T18:25:37.620Z,98481.34
2023-03-31T18:28:22.391Z,98472.31
2023-03-31T18:31:12.700Z,98462.50
2023-03-31T18:33:58.327Z,98470.59
2023-03-31T18:36:41.808Z,98477.34
2023-03-31T18:39:26.336Z,98479.06
2023-03-31T18:42:22.780Z,98479.78
2023-03-31T18:45:08.968Z,98482.53
2023-03-31T18:47:56.396Z,98479.31
2023-03-31T18:50:34.160Z,98480.66
2023-03-31T18:53:18.143Z,98478.31
2023-03-31T18:56:09.620Z,98485.94
2023-03-31T18:58:57.017Z,98485.94
2023-03-31T19:01:46.886Z,98480.47
2023-03-31T19:04:26.379Z,98489.16
2023-03-31T19:07:12.648Z,98482.06
2023-03-31T19:09:57.507Z,98481.59
2023-03-31T19:12:43.882Z,98485.09
2023-03-31T19:15:33.326Z,98489.19
2023-03-31T19:18:31.120Z,98494.09
2023-03-31T19:21:25.820Z,98489.19
2023-03-31T19:24:15.384Z,98494.59
2023-03-31T19:27:05.695Z,98492.66
2023-03-31T19:29:54.763Z,98495.63
2023-03-31T19:32:43.895Z,98494.25
2023-03-31T19:35:27.536Z,98487.44
2023-03-31T19:38:36.767Z,98487.44
2023-03-31T19:41:28.508Z,98497.94
2023-03-31T19:44:09.705Z,98491.09
2023-03-31T19:46:58.783Z,98492.22
2023-03-31T19:49:47.722Z,98492.13
2023-03-31T19:52:31.733Z,98486.72
2023-03-31T19:55:17.732Z,98484.50
2023-03-31T19:58:04.458Z,98493.41
2023-03-31T20:00:48.453Z,98493.94
2023-03-31T20:03:36.802Z,98492.28
2023-03-31T20:06:22.484Z,98494.66
2023-03-31T20:09:09.177Z,98490.78
2023-03-31T20:11:47.575Z,98486.88
2023-03-31T20:14:36.662Z,98488.94
2023-03-31T20:17:24.326Z,98486.47
2023-03-31T20:20:02.333Z,98486.66
2023-03-31T20:22:53.436Z,98489.47
2023-03-31T20:25:41.651Z,98480.28
2023-03-31T20:28:22.498Z,98470.97
2023-03-31T20:31:19.040Z,98481.69
2023-03-31T20:34:22.506Z,98471.63
2023-03-31T20:37:11.031Z,98472.84
2023-03-31T20:39:59.025Z,98456.03
2023-03-31T20:42:45.628Z,98454.03
2023-03-31T20:45:27.247Z,98458.28
2023-03-31T20:48:19.901Z,98463.34
2023-03-31T20:51:09.325Z,98459.94
2023-03-31T20:53:56.456Z,98453.75
2023-03-31T20:56:55.545Z,98452.31
2023-03-31T20:59:38.659Z,98455.41
2023-03-31T21:02:30.441Z,98445.84
2023-03-31T21:05:08.528Z,98440.16
2023-03-31T21:08:08.682Z,98435.00
2023-03-31T21:11:01.670Z,98427.06
2023-03-31T21:13:42.489Z,98424.38
2023-03-31T21:16:29.466Z,98420.31
2023-03-31T21:19:09.585Z,98411.47
2023-03-31T21:21:56.005Z,98405.00
2023-03-31T21:24:48.987Z,98397.78
2023-03-31T21:27:29.366Z,98403.38
2023-03-31T21:30:12.484Z,98398.47
2023-03-31T21:32:50.798Z,98398.03
2023-03-31T21:35:32.050Z,98395.69
2023-03-31T21:38:13.589Z,98396.34
2023-03-31T21:41:09.400Z,98393.97
2023-03-31T21:44:00.428Z,98389.56
2023-03-31T21:46:47.601Z,98388.16
2023-03-31T21:49:28.934Z,98391.81
2023-03-31T21:52:11.522Z,98383.22
2023-03-31T21:54:51.765Z,98380.41
2023-03-31T21:57:32.553Z,98391.13
2023-03-31T22:00:13.939Z,98389.41
2023-03-31T22:03:06.249Z,98386.59
2023-03-31T22:06:00.330Z,98386.09
2023-03-31T22:08:39.656Z,98388.09
2023-03-31T22:11:15.040Z,98398.47
2023-03-31T22:13:52.752Z,98390.88
2023-03-31T22:16:37.436Z,98393.50
2023-03-31T22:19:18.338Z,98393.66
2023-03-31T22:21:59.292Z,98398.97
2023-03-31T22:24:50.684Z,98402.47
2023-03-31T22:27:28.475Z,98395.34
2023-03-31T22:30:11.251Z,98390.97
2023-03-31T22:32:51.609Z,98392.78
2023-03-31T22:35:28.771Z,98382.72
2023-03-31T22:38:08.805Z,98386.09
2023-03-31T22:40:57.035Z,98372.03
2023-03-31T22:43:36.299Z,98378.56
2023-03-31T22:46:20.129Z,98374.00
2023-03-31T22:48:56.361Z,98376.91
2023-03-31T22:51:30.170Z,98365.31
2023-03-31T22:54:07.987Z,98363.69
2023-03-31T22:56:51.077Z,98354.81
2023-03-31T22:59:29.529Z,98352.16
2023-03-31T23:02:08.277Z,98348.16
2023-03-31T23:04:48.717Z,98347.25
2023-03-31T23:07:31.056Z,98344.63
2023-03-31T23:10:15.402Z,98344.31
2023-03-31T23:13:00.663Z,98344.72
2023-03-31T23:15:46.490Z,98348.81
2023-03-31T23:18:25.776Z,98334.47
2023-03-31T23:21:05.655Z,98332.03
2023-03-31T23:23:51.381Z,98324.19
2023-03-31T23:26:35.604Z,98319.72
2023-03-31T23:29:22.429Z,98327.75
2023-03-31T23:32:06.237Z,98335.34
2023-03-31T23:34:44.659Z,98331.94
2023-03-31T23:37:37.858Z,98340.59
2023-03-31T23:40:22.666Z,98346.19
2023-03-31T23:43:01.894Z,98337.59
2023-03-31T23:45:42.501Z,98345.44
2023-03-31T23:48:23.399Z,98343.72
2023-03-31T23:51:02.338Z,98337.84
2023-03-31T23:53:48.687Z,98334.72
2023-03-31T23:56:34.173Z,98333.44
2023-03-31T23:59:22.756Z,98330.81
